Flight Track Log - Related Links

Times and Time Zones

All times are in EDT time to prevent confusion due to time zone crossing. See the C-GONN flight status page for this flight to view local times or setup timezone preferences in your user account.

Time Position Orientation Groundspeed Altitude Reporting Facility
EDT Latitude Longitude Course Direction KTS MPH feet Rate Location/Type
Wed 11:59:13 AM 48.6333 -123.4167 North 110 127 200  Level Vancouver Center
Wed 12:00:13 PM 48.6500 -123.3667 63° Northeast 170 196 1,300 1,150 Climbing Vancouver Center
Wed 12:01:13 PM 48.6833 -123.3167 45° Northeast 180 207 2,500 850 Climbing Vancouver Center
Wed 12:02:13 PM 48.7167 -123.2667 45° Northeast 190 219 3,000 200 Climbing Vancouver Center
Wed 12:03:00 PM 48.9061 -123.4188 North  Level FlightAware Approximate
Wed 12:03:13 PM 48.7667 -123.3167 327° Northwest 210 242 2,900  Level Vancouver Center
Wed 12:04:13 PM 48.8167 -123.3500 336° Northwest 220 253 3,600 1,000 Climbing Vancouver Center
Wed 12:05:13 PM 48.8667 -123.4000 327° Northwest 170 196 4,900 650 Climbing Vancouver Center
Wed 12:06:13 PM 48.9167 -123.4167 348° North 210 242 4,900 50 Level Vancouver Center
Wed 12:07:13 PM 48.9833 -123.4000 North 230 265 5,000  Climbing Vancouver Center
Wed 12:08:13 PM 49.0500 -123.4000 360° North 230 265 4,900  Descending Vancouver Center
Wed 12:09:13 PM 49.1000 -123.4167 348° North 230 265 5,000 -250 Climbing Vancouver Center
Wed 12:10:13 PM 49.1667 -123.4500 342° North 230 265 4,400 -750 Descending Vancouver Center
Wed 12:11:13 PM 49.2333 -123.4667 351° North 230 265 3,500 -400 Descending Vancouver Center
Wed 12:12:13 PM 49.2833 -123.5000 336° Northwest 220 253 3,600  Climbing Vancouver Center
Wed 12:13:13 PM 49.3167 -123.4167 58° Northeast 230 265 3,500 -200 Descending Vancouver Center
Wed 12:14:13 PM 49.3000 -123.3333 107° East 210 242 3,200 -650 Descending Vancouver Center
Wed 12:15:13 PM 49.2667 -123.3167 162° South 170 196 2,200 -950 Descending Vancouver Center
Wed 12:16:13 PM 49.2333 -123.2667 136° Southeast 150 173 1,300 -750 Descending Vancouver Center
Wed 12:17:13 PM 49.2000 -123.2333 147° Southeast 110 127 700 -600 Descending Vancouver Center
Wed 12:18:13 PM 49.1833 -123.2167 147° Southeast 100 115 100 -600 Descending Vancouver Center

Login

Don't have an account? Register now (free) for customized features, flight alerts, and more!